Time;durP1;ratioP1;P1;durP2;ratioP2;P2;SDS_P1;SDS_P2;PMS_P1;PMS_P2;Temp;Humidity;BMP_temperature;BMP_pressure;BME280_temperature;BME280_humidity;BME280_pressure;Samples;Min_cycle;Max_cycle;Signal;HPM_P1;HPM_P2
2022/01/27 00:00:43;;;;;;;14.20;9.90;;;;;;;1.99;85.72;100730.06;84427;1336;22595;-76
2022/01/27 00:03:08;;;;;;;15.10;9.80;;;;;;;1.96;85.61;100725.06;84505;1335;22635;-80
2022/01/27 00:05:17;;;;;;;15.40;10.10;;;;;;;1.89;85.35;100729.00;84499;1333;22622;-81
2022/01/27 00:07:25;;;;;;;14.40;9.10;;;;;;;1.86;85.45;100723.82;84464;1334;22603;-78
2022/01/27 00:09:45;;;;;;;14.20;8.80;;;;;;;1.86;85.60;100730.35;84517;1333;22634;-77
2022/01/27 00:11:54;;;;;;;15.50;9.50;;;;;;;1.84;85.28;100729.49;84398;1338;22619;-77
2022/01/27 00:14:02;;;;;;;12.80;9.10;;;;;;;1.82;85.43;100728.63;84460;1334;23021;-80
2022/01/27 00:16:13;;;;;;;12.70;8.80;;;;;;;1.81;85.41;100728.28;84442;1334;24472;-79
2022/01/27 00:18:22;;;;;;;13.50;10.00;;;;;;;1.78;85.21;100723.29;84481;1333;22736;-77
2022/01/27 00:20:32;;;;;;;15.70;9.20;;;;;;;1.76;85.28;100728.09;84498;1334;22630;-76
2022/01/27 00:22:42;;;;;;;16.60;10.50;;;;;;;1.74;85.34;100723.95;84491;1333;22656;-80
2022/01/27 00:24:50;;;;;;;;;;;;;;;1.68;85.23;100725.14;84494;1335;25642;-81
2022/01/27 00:26:56;;;;;;;11.30;9.10;;;;;;;1.63;85.34;100724.27;84449;1333;22610;-81
2022/01/27 00:29:05;;;;;;;15.20;9.70;;;;;;;1.63;85.51;100719.27;84484;1334;22702;-81
2022/01/27 00:31:11;;;;;;;15.00;10.50;;;;;;;1.64;85.59;100720.83;84443;1334;22609;-79
2022/01/27 00:33:17;;;;;;;13.70;9.30;;;;;;;1.64;85.70;100714.46;84478;1336;22615;-81
2022/01/27 00:35:26;;;;;;;16.90;10.50;;;;;;;1.61;85.51;100712.55;84456;1334;24252;-81
2022/01/27 00:37:31;;;;;;;16.10;11.10;;;;;;;1.59;85.54;100714.10;84482;1336;22607;-75
2022/01/27 00:39:38;;;;;;;18.40;10.30;;;;;;;1.58;85.48;100715.30;84427;1337;22609;-73
2022/01/27 00:41:44;;;;;;;17.20;11.30;;;;;;;1.55;85.64;100721.48;84490;1336;22755;-75
2022/01/27 00:43:52;;;;;;;22.40;14.30;;;;;;;1.56;85.89;100715.80;84505;1331;22707;-81
2022/01/27 00:46:01;;;;;;;27.60;18.50;;;;;;;1.59;85.98;100716.17;84453;1335;22670;-80
2022/01/27 00:48:07;;;;;;;28.70;19.10;;;;;;;1.60;86.01;100714.79;84501;1334;25538;-80
2022/01/27 00:50:16;;;;;;;21.50;17.10;;;;;;;1.62;86.10;100712.91;84425;1334;26624;-81
2022/01/27 00:52:32;;;;;;;20.20;15.60;;;;;;;1.65;86.23;100714.80;84477;1337;24252;-75
2022/01/27 00:54:41;;;;;;;14.70;10.60;;;;;;;1.68;86.17;100713.63;84456;1334;22694;-75
2022/01/27 00:56:52;;;;;;;13.80;10.00;;;;;;;1.70;86.18;100717.41;84484;1333;22556;-75
2022/01/27 00:59:18;;;;;;;12.70;9.60;;;;;;;1.70;86.03;100712.42;84425;1338;24357;-76
2022/01/27 01:01:30;;;;;;;13.90;9.50;;;;;;;1.69;86.07;100715.52;84487;1333;25480;-75
2022/01/27 01:03:44;;;;;;;12.70;9.80;;;;;;;1.69;86.08;100718.09;84472;1334;25448;-75
2022/01/27 01:06:07;;;;;;;13.70;8.80;;;;;;;1.67;85.99;100720.67;84476;1336;24158;-75
2022/01/27 01:08:58;;;;;;;16.10;10.50;;;;;;;1.65;85.92;100718.08;84408;1334;22601;-76
2022/01/27 01:15:43;;;;;;;12.20;9.30;;;;;;;1.67;86.16;100717.91;84439;1334;22662;-75
2022/01/27 01:18:07;;;;;;;14.70;10.00;;;;;;;1.71;86.30;100713.80;84471;1331;25319;-76
2022/01/27 01:20:28;;;;;;;18.70;11.00;;;;;;;1.74;86.40;100707.45;84496;1336;22612;-75
2022/01/27 01:30:05;;;;;;;18.40;11.80;;;;;;;1.69;86.15;100697.98;84445;1337;22611;-80
2022/01/27 01:32:18;;;;;;;18.70;11.40;;;;;;;1.70;86.37;100697.11;84489;1332;23994;-80
2022/01/27 01:34:27;;;;;;;17.60;11.20;;;;;;;1.73;86.46;100703.31;84495;1332;25963;-81
2022/01/27 01:36:36;;;;;;;16.70;10.50;;;;;;;1.74;86.43;100702.29;84429;1336;22586;-81
2022/01/27 01:38:45;;;;;;;15.20;10.30;;;;;;;1.75;86.29;100705.23;84493;1334;24251;-73
2022/01/27 01:40:56;;;;;;;18.90;13.00;;;;;;;1.77;86.46;100704.71;84492;1336;22944;-75
2022/01/27 01:43:06;;;;;;;23.10;12.60;;;;;;;1.80;86.57;100707.30;84378;1338;24254;-80
2022/01/27 01:45:17;;;;;;;21.80;13.60;;;;;;;1.81;86.28;100704.88;84519;1333;25526;-81
2022/01/27 01:47:27;;;;;;;21.30;13.00;;;;;;;1.79;86.30;100700.24;84539;1334;22773;-76
2022/01/27 01:49:37;;;;;;;23.90;13.30;;;;;;;1.77;86.35;100698.17;84464;1334;22843;-76
2022/01/27 01:51:43;;;;;;;28.20;14.90;;;;;;;1.75;86.21;100696.79;84406;1338;22788;-74
2022/01/27 01:53:52;;;;;;;22.10;13.70;;;;;;;1.75;86.24;100697.48;84510;1332;26131;-80
2022/01/27 01:55:58;;;;;;;24.60;13.20;;;;;;;1.76;86.26;100695.74;84487;1334;24965;-81
2022/01/27 01:58:04;;;;;;;25.70;14.50;;;;;;;1.75;86.32;100694.55;84511;1336;26922;-75
2022/01/27 02:00:14;;;;;;;25.00;14.90;;;;;;;1.74;86.28;100696.79;84429;1337;23984;-75
2022/01/27 02:02:20;;;;;;;22.00;13.50;;;;;;;1.73;86.39;100695.06;84422;1333;22619;-80
2022/01/27 02:04:26;;;;;;;24.90;12.70;;;;;;;1.71;86.29;100692.81;84450;1336;25384;-81
2022/01/27 02:06:36;;;;;;;23.00;14.60;;;;;;;1.71;86.38;100692.64;84483;1335;22621;-80
2022/01/27 02:08:48;;;;;;;27.30;14.90;;;;;;;1.70;86.30;100696.59;84491;1333;24804;-80
2022/01/27 02:18:14;;;;;;;35.00;15.90;;;;;;;1.78;86.46;100687.51;84431;1333;22640;-74
2022/01/27 02:20:21;;;;;;;29.20;16.40;;;;;;;1.75;86.42;100685.44;84490;1333;22670;-75
2022/01/27 02:22:27;;;;;;;28.70;15.10;;;;;;;1.74;86.50;100683.54;84454;1336;23002;-76
2022/01/27 02:24:35;;;;;;;32.30;14.60;;;;;;;1.73;86.57;100680.62;84472;1334;22604;-76
2022/01/27 02:26:41;;;;;;;27.90;15.30;;;;;;;1.73;86.46;100671.50;84376;1334;22612;-77
2022/01/27 02:28:47;;;;;;;30.40;16.10;;;;;;;1.73;86.54;100667.36;84466;1338;22669;-81
2022/01/27 02:30:55;;;;;;;27.10;16.00;;;;;;;1.74;86.47;100668.75;84515;1333;24302;-81
2022/01/27 02:33:01;;;;;;;36.10;18.30;;;;;;;1.74;86.60;100666.86;84495;1334;22620;-80
2022/01/27 02:35:08;;;;;;;35.50;16.70;;;;;;;1.74;86.70;100659.64;84497;1333;22636;-81
2022/01/27 02:37:14;;;;;;;37.80;17.70;;;;;;;1.74;86.64;100652.24;84463;1330;24350;-76
2022/01/27 02:39:23;;;;;;;36.80;16.40;;;;;;;1.72;86.56;100651.02;84521;1333;24013;-75
2022/01/27 02:41:31;;;;;;;34.00;16.90;;;;;;;1.69;86.50;100648.63;83789;1336;1003683;-76
2022/01/27 02:43:40;;;;;;;36.10;17.00;;;;;;;1.67;86.72;100646.38;84474;1332;24266;-80
2022/01/27 02:45:54;;;;;;;33.40;17.20;;;;;;;1.68;86.66;100648.80;84497;1333;22610;-81
2022/01/27 02:48:00;;;;;;;42.20;17.70;;;;;;;1.68;86.70;100651.70;84494;1334;22605;-80
2022/01/27 02:50:08;;;;;;;34.20;15.70;;;;;;;1.67;86.79;100648.43;84479;1334;24188;-81
2022/01/27 02:52:15;;;;;;;37.00;17.80;;;;;;;1.68;86.71;100652.40;84490;1333;26725;-80
2022/01/27 02:54:21;;;;;;;34.80;17.10;;;;;;;1.69;86.73;100645.70;84490;1333;23421;-81
2022/01/27 02:56:27;;;;;;;36.20;18.20;;;;;;;1.71;86.93;100640.36;84490;1334;22706;-82
2022/01/27 02:58:36;;;;;;;34.00;17.60;;;;;;;1.69;86.74;100639.66;84445;1333;22613;-80
2022/01/27 03:00:42;;;;;;;36.60;16.40;;;;;;;1.69;86.94;100634.35;84495;1335;22768;-81
2022/01/27 03:02:48;;;;;;;33.40;17.10;;;;;;;1.71;86.85;100632.79;84510;1332;22707;-75
2022/01/27 03:04:54;;;;;;;36.10;16.50;;;;;;;1.73;86.86;100635.04;84471;1332;22637;-76
2022/01/27 03:07:01;;;;;;;35.00;17.00;;;;;;;1.73;86.93;100631.09;84491;1336;25369;-77
2022/01/27 03:09:13;;;;;;;34.40;18.00;;;;;;;1.75;87.07;100635.55;84471;1335;22826;-76
2022/01/27 03:11:34;;;;;;;40.90;18.10;;;;;;;1.76;86.93;100634.70;84509;1332;25366;-76
2022/01/27 03:13:43;;;;;;;37.90;18.90;;;;;;;1.76;86.93;100635.39;84529;1334;24286;-81
2022/01/27 03:15:51;;;;;;;34.50;17.60;;;;;;;1.75;86.90;100632.28;84494;1330;22603;-81
2022/01/27 03:18:00;;;;;;;46.70;19.40;;;;;;;1.76;86.98;100624.89;84472;1337;22670;-76
2022/01/27 03:20:09;;;;;;;41.40;19.50;;;;;;;1.76;86.95;100621.96;84503;1333;25292;-76
2022/01/27 03:22:15;;;;;;;41.60;17.20;;;;;;;1.75;86.86;100622.31;84488;1335;26525;-80
2022/01/27 03:24:23;;;;;;;39.70;18.90;;;;;;;1.74;86.88;100619.39;84493;1335;22589;-82
2022/01/27 03:26:32;;;;;;;40.50;17.60;;;;;;;1.74;86.90;100621.11;84517;1332;25385;-81
2022/01/27 03:28:40;;;;;;;35.60;17.50;;;;;;;1.74;86.85;100619.23;84488;1335;22599;-76
2022/01/27 03:30:49;;;;;;;37.80;19.30;;;;;;;1.75;87.16;100617.15;84523;1326;22605;-75
2022/01/27 03:32:58;;;;;;;42.50;17.10;;;;;;;1.74;87.02;100619.73;84498;1336;25287;-76
2022/01/27 03:35:05;;;;;;;39.50;18.60;;;;;;;1.74;87.11;100624.89;84506;1333;22665;-76
2022/01/27 03:37:11;;;;;;;33.60;17.80;;;;;;;1.74;87.17;100629.20;84541;1334;22680;-76
2022/01/27 03:39:22;;;;;;;43.00;20.00;;;;;;;1.74;87.08;100628.52;84485;1334;22702;-76
2022/01/27 03:41:32;;;;;;;38.80;18.50;;;;;;;1.74;87.19;100627.81;84501;1336;22607;-76
2022/01/27 03:43:39;;;;;;;37.60;19.20;;;;;;;1.73;87.10;100627.83;84527;1333;22613;-81
2022/01/27 03:45:45;;;;;;;42.30;17.60;;;;;;;1.73;87.16;100627.14;84503;1332;22603;-82
2022/01/27 03:47:53;;;;;;;36.50;16.60;;;;;;;1.75;87.25;100628.67;84496;1333;24251;-82
2022/01/27 03:49:59;;;;;;;34.50;18.90;;;;;;;1.76;87.23;100626.78;84485;1333;22603;-81
2022/01/27 03:52:08;;;;;;;35.60;17.90;;;;;;;1.77;87.14;100624.20;84442;1336;22599;-82
2022/01/27 03:54:17;;;;;;;;;;;;;;;1.77;87.14;100625.40;84420;1334;23041;-75
2022/01/27 03:56:23;;;;;;;31.90;16.00;;;;;;;1.77;87.33;100623.68;84492;1328;22629;-76
2022/01/27 03:58:29;;;;;;;38.50;18.60;;;;;;;1.79;87.34;100624.39;84519;1332;23718;-80
2022/01/27 04:00:35;;;;;;;34.00;17.90;;;;;;;1.79;87.35;100624.21;84482;1333;22682;-80
2022/01/27 04:02:52;;;;;;;35.40;17.70;;;;;;;1.79;87.17;100615.27;84451;1334;22740;-79
2022/01/27 04:04:58;;;;;;;35.10;17.20;;;;;;;1.80;87.39;100609.42;84458;1334;24001;-80
2022/01/27 04:07:13;;;;;;;38.00;16.40;;;;;;;1.78;87.17;100605.82;84471;1334;23050;-81
2022/01/27 04:09:19;;;;;;;34.50;17.40;;;;;;;1.79;87.31;100596.52;84315;1332;264713;-75
2022/01/27 04:11:25;;;;;;;31.30;15.60;;;;;;;1.79;87.16;100592.91;84510;1333;23970;-74
2022/01/27 04:13:31;;;;;;;36.60;16.60;;;;;;;1.80;87.15;100588.44;84517;1332;22662;-74
2022/01/27 04:15:39;;;;;;;33.10;17.10;;;;;;;1.82;87.27;100592.39;84497;1336;25458;-74
2022/01/27 04:17:45;;;;;;;35.70;16.30;;;;;;;1.85;87.26;100593.44;84515;1333;22722;-82
2022/01/27 04:19:51;;;;;;;39.60;18.60;;;;;;;1.87;87.45;100593.77;84450;1335;22811;-74
2022/01/27 04:21:57;;;;;;;34.10;16.10;;;;;;;1.86;87.25;100596.02;84467;1338;22606;-74
2022/01/27 04:24:05;;;;;;;34.40;15.90;;;;;;;1.83;87.17;100598.08;84496;1332;22596;-74
2022/01/27 04:26:18;;;;;;;38.20;18.10;;;;;;;1.83;87.32;100598.26;84419;1336;22712;-74
2022/01/27 04:28:28;;;;;;;38.10;16.90;;;;;;;1.83;87.12;100594.46;84458;1330;22609;-74
2022/01/27 04:30:35;;;;;;;35.10;15.20;;;;;;;1.83;87.10;100589.30;84499;1334;22704;-74
2022/01/27 04:32:47;;;;;;;36.30;16.40;;;;;;;1.84;87.25;100587.25;84430;1333;25621;-81
2022/01/27 04:35:01;;;;;;;38.00;16.80;;;;;;;1.84;87.17;100586.90;84515;1333;22599;-81
2022/01/27 04:37:12;;;;;;;31.70;16.70;;;;;;;1.83;87.08;100585.02;84489;1336;22615;-77
2022/01/27 04:39:23;;;;;;;33.90;19.30;;;;;;;1.84;87.14;100581.05;84493;1332;25320;-81
2022/01/27 04:41:36;;;;;;;35.40;16.80;;;;;;;1.84;87.21;100580.70;84511;1332;22804;-82
2022/01/27 04:43:52;;;;;;;34.80;16.80;;;;;;;1.84;87.17;100580.88;84500;1332;22755;-74
2022/01/27 04:46:07;;;;;;;42.50;17.30;;;;;;;1.84;87.10;100579.85;84498;1332;22607;-76
2022/01/27 04:48:19;;;;;;;34.90;15.30;;;;;;;1.84;87.12;100575.38;84493;1330;22653;-81
2022/01/27 04:50:27;;;;;;;27.20;14.90;;;;;;;1.84;87.17;100572.79;84511;1332;25473;-81
2022/01/27 04:52:35;;;;;;;32.70;14.50;;;;;;;1.84;87.18;100573.48;84553;1333;22622;-74
2022/01/27 04:54:55;;;;;;;30.40;14.70;;;;;;;1.84;87.06;100575.55;84458;1334;22697;-75
2022/01/27 04:57:03;;;;;;;29.50;15.00;;;;;;;1.84;87.07;100572.96;84510;1328;23025;-75
2022/01/27 04:59:16;;;;;;;31.40;16.20;;;;;;;1.84;87.08;100574.69;84505;1331;22637;-75
2022/01/27 05:01:29;;;;;;;34.60;15.90;;;;;;;1.84;87.17;100577.95;84492;1330;23986;-74
2022/01/27 05:03:40;;;;;;;33.00;16.20;;;;;;;1.85;87.01;100574.69;84520;1332;22684;-82
2022/01/27 05:05:46;;;;;;;30.40;15.40;;;;;;;1.84;87.08;100569.52;84525;1330;22607;-81
2022/01/27 05:07:55;;;;;;;33.40;13.70;;;;;;;1.84;86.98;100566.26;84498;1333;25591;-80
2022/01/27 05:10:10;;;;;;;24.30;13.60;;;;;;;1.83;87.00;100551.81;84498;1334;22716;-80
2022/01/27 05:12:26;;;;;;;29.80;14.00;;;;;;;1.84;86.88;100546.48;84490;1333;22709;-79
2022/01/27 05:14:31;;;;;;;28.20;13.00;;;;;;;1.84;87.08;100540.11;84449;1332;22855;-81
2022/01/27 05:16:41;;;;;;;26.60;12.30;;;;;;;1.85;87.00;100537.35;84455;1334;22600;-81
2022/01/27 05:18:48;;;;;;;29.30;13.40;;;;;;;1.86;86.92;100536.48;84503;1332;22599;-74
2022/01/27 05:20:57;;;;;;;28.70;13.30;;;;;;;1.85;86.88;100540.27;84507;1333;24290;-74
2022/01/27 05:23:02;;;;;;;26.30;13.40;;;;;;;1.86;86.89;100537.52;84512;1330;22662;-81
2022/01/27 05:25:12;;;;;;;30.50;14.50;;;;;;;1.83;86.91;100539.94;84403;1334;23193;-81
2022/01/27 05:27:18;;;;;;;33.80;14.90;;;;;;;1.80;87.00;100543.20;84495;1332;22649;-81
2022/01/27 05:29:28;;;;;;;26.60;13.80;;;;;;;1.78;86.99;100535.64;84453;1336;22636;-82
2022/01/27 05:31:34;;;;;;;28.90;13.70;;;;;;;1.78;86.97;100534.95;84423;1333;24084;-82
2022/01/27 05:33:42;;;;;;;27.90;13.00;;;;;;;1.78;86.99;100534.27;84472;1337;25447;-80
2022/01/27 05:35:51;;;;;;;31.10;14.40;;;;;;;1.78;87.10;100532.03;84446;1336;22625;-81
2022/01/27 05:37:57;;;;;;;36.40;15.40;;;;;;;1.77;87.12;100531.16;84424;1334;22601;-74
2022/01/27 05:40:04;;;;;;;34.30;16.20;;;;;;;1.78;87.11;100531.00;84453;1333;22611;-74
2022/01/27 05:42:13;;;;;;;31.40;15.20;;;;;;;1.80;87.27;100532.70;84457;1338;22643;-76
2022/01/27 05:44:22;;;;;;;36.70;16.20;;;;;;;1.79;87.29;100527.38;84439;1338;24089;-75
2022/01/27 05:46:28;;;;;;;34.00;16.50;;;;;;;1.80;87.28;100524.45;84498;1333;25351;-75
2022/01/27 05:48:34;;;;;;;38.20;14.90;;;;;;;1.80;87.26;100522.04;84498;1331;22606;-73
2022/01/27 05:50:41;;;;;;;33.20;15.70;;;;;;;1.80;87.43;100518.77;84369;1335;22591;-74
2022/01/27 05:52:46;;;;;;;31.60;15.50;;;;;;;1.80;87.24;100520.67;84444;1336;25472;-74
2022/01/27 05:54:53;;;;;;;32.10;15.70;;;;;;;1.81;87.20;100523.24;84438;1335;22626;-74
2022/01/27 05:56:59;;;;;;;36.10;14.30;;;;;;;1.82;87.31;100523.95;84496;1334;22596;-75
2022/01/27 05:59:05;;;;;;;29.70;14.40;;;;;;;1.84;87.32;100524.63;84514;1332;22618;-75
2022/01/27 06:01:11;;;;;;;33.10;14.90;;;;;;;1.87;87.38;100525.65;84500;1332;22603;-75
2022/01/27 06:03:16;;;;;;;37.00;17.20;;;;;;;1.88;87.39;100517.40;84515;1332;25299;-81
2022/01/27 06:05:22;;;;;;;42.50;17.20;;;;;;;1.87;87.41;100516.36;84404;1335;22623;-81
2022/01/27 06:07:28;;;;;;;43.70;18.60;;;;;;;1.88;87.51;100514.65;84457;1336;22746;-81
2022/01/27 06:09:34;;;;;;;38.40;16.70;;;;;;;1.87;87.33;100508.80;84515;1332;23072;-75
2022/01/27 06:11:43;;;;;;;39.70;18.60;;;;;;;1.86;87.34;100505.02;84483;1333;23930;-75
2022/01/27 06:13:48;;;;;;;34.60;15.60;;;;;;;1.85;87.27;100501.05;84395;1336;22619;-80
2022/01/27 06:15:57;;;;;;;42.00;17.50;;;;;;;1.86;87.35;100496.23;84516;1330;22764;-81
2022/01/27 06:18:03;;;;;;;32.60;14.80;;;;;;;1.87;87.40;100497.79;84485;1332;24139;-75
2022/01/27 06:20:11;;;;;;;40.30;18.00;;;;;;;1.88;87.41;100494.02;84482;1327;24352;-75
2022/01/27 06:22:17;;;;;;;37.80;17.50;;;;;;;1.90;87.50;100496.23;84435;1334;25442;-75
2022/01/27 06:24:27;;;;;;;38.90;17.80;;;;;;;1.91;87.65;100494.17;84451;1333;23944;-73
2022/01/27 06:26:34;;;;;;;35.20;16.40;;;;;;;1.92;87.58;100488.51;84501;1332;22632;-74
2022/01/27 06:28:40;;;;;;;53.00;18.40;;;;;;;1.90;87.56;100481.79;84435;1333;23940;-80
2022/01/27 06:30:46;;;;;;;33.10;15.90;;;;;;;1.88;87.51;100477.84;84459;1334;24233;-81
2022/01/27 06:32:52;;;;;;;37.80;17.30;;;;;;;1.86;87.55;100470.60;84500;1332;23081;-75
2022/01/27 06:34:57;;;;;;;39.30;17.20;;;;;;;1.85;87.57;100465.45;84409;1335;22826;-74
2022/01/27 06:37:05;;;;;;;37.50;17.40;;;;;;;1.85;87.43;100467.00;84504;1332;25327;-75
2022/01/27 06:39:11;;;;;;;33.90;17.30;;;;;;;1.86;87.60;100464.77;84510;1332;22599;-75
2022/01/27 06:41:17;;;;;;;32.80;17.20;;;;;;;1.88;87.60;100460.98;84441;1333;22685;-75
2022/01/27 06:43:26;;;;;;;38.00;17.60;;;;;;;1.87;87.56;100464.08;84514;1330;22729;-81
2022/01/27 06:45:31;;;;;;;38.60;17.20;;;;;;;1.87;87.61;100454.78;84486;1332;22715;-80
2022/01/27 06:47:38;;;;;;;41.80;18.40;;;;;;;1.88;87.76;100452.89;84490;1327;22726;-74
2022/01/27 06:49:44;;;;;;;38.40;18.70;;;;;;;1.86;87.63;100453.58;84448;1333;22616;-74
2022/01/27 06:51:50;;;;;;;37.30;17.00;;;;;;;1.85;87.65;100457.55;84478;1332;24317;-73
2022/01/27 06:54:00;;;;;;;36.40;18.30;;;;;;;1.84;87.62;100457.03;84492;1335;25311;-73
2022/01/27 06:56:07;;;;;;;33.20;16.10;;;;;;;1.83;87.57;100451.88;84418;1336;22591;-73
2022/01/27 06:58:13;;;;;;;35.10;18.00;;;;;;;1.82;87.58;100452.21;84418;1333;23823;-74
2022/01/27 07:00:20;;;;;;;39.50;16.50;;;;;;;1.84;87.62;100446.37;84473;1333;22620;-74
2022/01/27 07:02:26;;;;;;;34.40;17.40;;;;;;;1.86;87.62;100441.88;84518;1332;24036;-74
2022/01/27 07:04:36;;;;;;;36.70;18.00;;;;;;;1.88;87.84;100442.05;84498;1330;22626;-73
2022/01/27 07:06:41;;;;;;;37.50;18.60;;;;;;;1.89;87.77;100443.43;84436;1330;22598;-72
2022/01/27 07:08:51;;;;;;;40.30;21.20;;;;;;;1.91;87.80;100441.70;84530;1332;24179;-81
2022/01/27 07:11:02;;;;;;;36.70;17.30;;;;;;;1.91;87.65;100446.00;84529;1330;22603;-81
2022/01/27 07:13:10;;;;;;;37.30;18.90;;;;;;;1.91;87.65;100445.83;84478;1330;22647;-73
2022/01/27 07:15:20;;;;;;;40.90;19.20;;;;;;;1.91;87.66;100449.44;84498;1336;22659;-72
2022/01/27 07:17:31;;;;;;;38.10;18.50;;;;;;;1.89;87.59;100444.46;84526;1332;25329;-73
2022/01/27 07:19:41;;;;;;;38.50;18.70;;;;;;;1.88;87.47;100438.45;84419;1334;22635;-73
2022/01/27 07:21:48;;;;;;;41.50;18.70;;;;;;;1.88;87.57;100431.91;84413;1334;22616;-73
2022/01/27 07:23:57;;;;;;;40.80;18.60;;;;;;;1.87;87.72;100435.70;84469;1331;22607;-73
2022/01/27 07:26:07;;;;;;;44.90;21.30;;;;;;;1.88;87.56;100437.59;84492;1333;22698;-73
2022/01/27 07:28:14;;;;;;;45.40;19.90;;;;;;;1.90;87.67;100434.48;84483;1332;23996;-72
2022/01/27 07:30:23;;;;;;;38.60;19.80;;;;;;;1.92;87.73;100433.27;84466;1332;25333;-82
2022/01/27 07:32:33;;;;;;;42.50;21.40;;;;;;;1.90;87.79;100430.36;84522;1333;24254;-71
2022/01/27 07:34:43;;;;;;;46.50;23.40;;;;;;;1.90;87.56;100429.48;84408;1335;24455;-71
2022/01/27 07:37:02;;;;;;;51.10;22.70;;;;;;;1.90;87.72;100438.78;84488;1334;22784;-72
2022/01/27 07:39:15;;;;;;;48.00;22.30;;;;;;;1.91;87.83;100435.51;84428;1327;22624;-72
2022/01/27 07:41:27;;;;;;;37.10;18.80;;;;;;;1.91;87.77;100438.77;83632;1336;1003117;-72
2022/01/27 07:43:37;;;;;;;44.00;19.70;;;;;;;1.92;87.73;100436.05;84495;1332;22624;-83
2022/01/27 07:45:47;;;;;;;42.00;19.50;;;;;;;1.94;87.72;100435.34;84470;1332;22658;-81
2022/01/27 07:48:08;;;;;;;48.80;22.00;;;;;;;1.96;87.78;100434.12;84545;1332;22819;-73
2022/01/27 07:50:19;;;;;;;47.20;21.90;;;;;;;1.95;87.65;100434.13;84453;1335;22625;-72
2022/01/27 07:52:33;;;;;;;56.60;23.60;;;;;;;1.95;87.81;100437.74;84452;1333;22636;-82
2022/01/27 07:54:43;;;;;;;49.00;23.70;;;;;;;1.94;87.71;100435.34;84462;1334;22632;-73
2022/01/27 07:56:51;;;;;;;58.50;25.60;;;;;;;1.93;87.88;100423.30;84514;1333;22660;-74
2022/01/27 07:59:10;;;;;;;52.20;25.30;;;;;;;1.90;87.62;100411.95;84508;1330;22623;-74
2022/01/27 08:01:21;;;;;;;54.40;24.20;;;;;;;1.90;87.64;100407.13;84497;1332;22621;-80
2022/01/27 08:03:31;;;;;;;52.00;23.10;;;;;;;1.89;87.72;100405.93;84503;1333;24109;-74
2022/01/27 08:05:42;;;;;;;49.30;23.10;;;;;;;1.90;87.77;100409.36;84458;1335;22615;-73
2022/01/27 08:07:54;;;;;;;52.00;24.80;;;;;;;1.92;87.87;100416.77;84526;1332;22623;-79
2022/01/27 08:10:09;;;;;;;49.70;23.40;;;;;;;1.94;87.79;100407.98;84446;1334;22688;-79
2022/01/27 08:12:30;;;;;;;47.70;22.90;;;;;;;1.95;87.77;100405.23;84499;1336;25273;-73
2022/01/27 08:14:41;;;;;;;51.40;24.30;;;;;;;1.94;87.68;100396.98;84462;1332;23124;-79
2022/01/27 08:19:18;;;;;;;50.60;24.10;;;;;;;1.94;87.71;100382.17;84460;1335;22683;-73
2022/01/27 08:21:24;;;;;;;51.30;25.00;;;;;;;1.95;87.66;100374.27;84450;1329;22606;-74
2022/01/27 08:23:32;;;;;;;51.20;24.70;;;;;;;1.96;87.72;100365.64;84521;1332;22618;-78
2022/01/27 08:25:39;;;;;;;47.80;23.70;;;;;;;1.96;87.65;100359.27;84468;1331;23644;-79
2022/01/27 08:27:47;;;;;;;49.30;24.40;;;;;;;1.95;87.42;100351.73;84556;1328;22648;-73
2022/01/27 08:30:00;;;;;;;49.00;25.20;;;;;;;1.95;87.46;100352.75;84498;1332;22734;-74
2022/01/27 08:32:16;;;;;;;45.50;23.70;;;;;;;1.98;87.56;100352.41;84492;1336;22738;-77
2022/01/27 08:34:41;;;;;;;48.60;23.00;;;;;;;2.00;87.59;100353.08;84537;1328;23051;-80
2022/01/27 08:37:05;;;;;;;47.40;23.70;;;;;;;2.02;87.64;100353.77;84527;1332;22750;-79
2022/01/27 08:39:12;;;;;;;47.20;23.50;;;;;;;2.02;87.40;100351.70;84511;1327;22900;-74
2022/01/27 08:41:21;;;;;;;57.30;26.20;;;;;;;2.01;87.31;100342.23;84426;1327;22731;-74
2022/01/27 08:43:33;;;;;;;45.80;23.00;;;;;;;2.01;87.41;100336.72;84451;1334;22570;-74
2022/01/27 08:45:39;;;;;;;48.50;24.30;;;;;;;2.02;87.38;100335.36;84499;1333;22941;-72
2022/01/27 08:47:45;;;;;;;40.80;22.80;;;;;;;2.01;87.20;100331.22;84449;1334;22711;-79
2022/01/27 08:49:52;;;;;;;43.60;21.50;;;;;;;2.03;87.22;100327.78;84447;1331;22868;-80
2022/01/27 08:51:58;;;;;;;43.00;21.40;;;;;;;2.03;87.20;100328.83;84501;1333;22629;-80
2022/01/27 08:54:04;;;;;;;42.00;21.80;;;;;;;2.05;87.18;100334.82;84476;1332;24276;-80
2022/01/27 08:56:13;;;;;;;42.00;20.90;;;;;;;2.08;87.10;100343.61;84510;1336;25363;-80
2022/01/27 08:58:25;;;;;;;38.40;20.80;;;;;;;2.10;87.26;100342.73;84528;1333;25464;-80
2022/01/27 09:00:31;;;;;;;37.40;20.00;;;;;;;2.11;87.11;100341.50;84455;1335;23061;-80
2022/01/27 09:02:40;;;;;;;36.50;20.00;;;;;;;2.14;87.21;100337.38;84473;1333;22640;-79
2022/01/27 09:04:49;;;;;;;34.60;20.00;;;;;;;2.16;86.89;100332.37;84451;1334;22638;-79
2022/01/27 09:06:55;;;;;;;36.90;19.90;;;;;;;2.15;86.76;100329.95;84468;1332;22621;-79
2022/01/27 09:09:08;;;;;;;34.40;20.60;;;;;;;2.15;86.76;100325.14;84433;1336;22588;-73
2022/01/27 09:11:14;;;;;;;40.50;21.80;;;;;;;2.13;86.65;100319.66;84494;1333;22627;-73
2022/01/27 09:13:24;;;;;;;37.60;20.40;;;;;;;2.11;86.59;100323.44;84473;1336;22623;-79
2022/01/27 09:15:34;;;;;;;38.80;19.70;;;;;;;2.10;86.59;100319.66;84464;1333;22840;-79
2022/01/27 09:17:44;;;;;;;36.50;21.30;;;;;;;2.08;86.67;100317.44;84480;1332;22589;-79
2022/01/27 09:19:54;;;;;;;37.90;18.90;;;;;;;2.07;86.61;100314.52;84482;1328;22603;-80
2022/01/27 09:22:06;;;;;;;39.10;19.70;;;;;;;2.07;86.65;100306.77;84489;1333;24004;-79
2022/01/27 09:24:15;;;;;;;33.00;18.60;;;;;;;2.08;86.66;100302.64;84478;1332;22846;-80
2022/01/27 09:26:42;;;;;;;34.00;18.00;;;;;;;2.11;86.78;100298.66;84518;1332;24413;-80
2022/01/27 09:28:58;;;;;;;30.50;16.40;;;;;;;2.12;86.64;100298.33;84442;1335;22690;-73
2022/01/27 09:31:09;;;;;;;38.50;19.40;;;;;;;2.15;86.68;100297.79;84493;1332;22605;-74
2022/01/27 09:33:19;;;;;;;39.70;19.70;;;;;;;2.16;86.63;100294.85;84509;1332;24315;-81
2022/01/27 09:35:27;;;;;;;37.40;20.60;;;;;;;2.18;86.80;100289.69;83796;1332;1003928;-81
2022/01/27 09:37:36;;;;;;;34.90;18.70;;;;;;;2.18;86.65;100288.66;84520;1332;22624;-79
2022/01/27 09:39:46;;;;;;;37.10;20.40;;;;;;;2.19;86.58;100287.97;84504;1333;22629;-79
2022/01/27 09:41:56;;;;;;;;;;;;;;;2.18;86.61;100282.80;84526;1332;22612;-79
2022/01/27 09:44:10;;;;;;;;;;;;;;;2.16;86.47;100284.36;84495;1332;22825;-80
2022/01/27 09:46:20;;;;;;;37.10;19.30;;;;;;;2.16;86.61;100277.46;84448;1335;25455;-79
2022/01/27 09:48:35;;;;;;;32.90;17.50;;;;;;;2.18;86.62;100272.14;84431;1334;25464;-74
2022/01/27 09:51:00;;;;;;;36.70;17.80;;;;;;;2.21;86.68;100273.66;84258;1338;22753;-75
2022/01/27 09:53:09;;;;;;;37.20;18.10;;;;;;;2.25;86.74;100270.88;84514;1334;22610;-79
2022/01/27 09:55:15;;;;;;;35.40;19.00;;;;;;;2.30;86.80;100261.38;84451;1332;26604;-79
2022/01/27 09:57:25;;;;;;;38.30;19.20;;;;;;;2.35;86.83;100255.33;84463;1333;23983;-78
2022/01/27 09:59:33;;;;;;;36.20;19.10;;;;;;;2.37;86.56;100254.65;84508;1335;22750;-80
2022/01/27 10:01:53;;;;;;;38.90;20.80;;;;;;;2.38;86.52;100254.63;84479;1333;22709;-79
2022/01/27 10:04:02;;;;;;;37.10;19.60;;;;;;;2.39;86.43;100243.09;84419;1326;22716;-78
2022/01/27 10:06:14;;;;;;;36.50;18.10;;;;;;;2.37;86.30;100241.04;84493;1333;22631;-80
2022/01/27 10:08:40;;;;;;;34.30;17.20;;;;;;;2.37;86.13;100240.36;84552;1333;22687;-79
2022/01/27 10:10:48;;;;;;;32.40;19.10;;;;;;;2.38;86.17;100240.69;84503;1332;24262;-79
2022/01/27 10:13:00;;;;;;;33.80;18.00;;;;;;;2.39;86.18;100238.95;84499;1328;22853;-79
2022/01/27 10:15:11;;;;;;;28.90;17.80;;;;;;;2.41;85.99;100235.84;84498;1332;22659;-79
2022/01/27 10:17:21;;;;;;;32.80;18.50;;;;;;;2.43;86.07;100235.83;84388;1335;25509;-74
2022/01/27 10:19:35;;;;;;;29.20;17.30;;;;;;;2.45;86.14;100227.89;84488;1327;22896;-74